Relevés horaires Kleine Brogel (Belgique)


Relevés horaires à Kleine Brogel - Samedi 25 Juin 2022
Heure UTC1 Température [°C] Vent [km/h] Hum. [%] Pres.4 [hPa] Visi. [Km] Nébu. [octa] Préc.5 [mm] Cond.
2m. Res. Ros. Dir.2 Vit. Moy. Raf.3
19:00 17.8 17.8 15.5 NNO 1.9 -- 11.1 86 1011.6(0.6/3h) -- -- -- --
18:00 18.0 18.0 16.0 ONO 5.6 -- 16.7 88 1011.3(0.1/3h) -- -- -- --
17:00 19.0 19.0 17.2 OSO 7.4 -- 16.7 89 1011.1(-0.2/3h) -- -- -- --
16:00 23.1 23.1 15.0 NNO 1.9 -- 5.6 60 1010.7(-0.6/3h) -- -- -- --
15:00 22.5 22.5 15.2 SO 3.7 -- 13.0 63 1011.1(-0.6/3h) -- -- -- --
14:00 23.8 23.8 13.8 NNO 1.9 -- 13.0 54 1011.2(-0.4/3h) -- -- -- --
13:00 24.7 24.7 15.6 SSO 5.6 -- 13.0 57 1011.3(-0.4/3h) -- -- -- --
12:00 22.8 22.8 15.0 SSO 5.6 -- 14.8 61 1011.7(0.0/3h) -- -- -- --
11:00 22.1 22.1 14.6 SSO 5.6 -- 13.0 62 1011.7(0.0/3h) -- -- -- --
10:00 21.0 21.0 14.2 SO 7.4 -- 14.8 65 1011.8(0.3/3h) -- -- -- --
09:00 20.6 20.6 14.5 SSO 7.4 -- 13.0 68 1011.7(0.6/3h) -- -- -- --
08:00 19.7 19.7 14.3 SSO 7.4 -- 13.0 71 1011.7(0.9/3h) -- -- -- --
07:00 18.7 18.7 14.6 SSO 3.7 -- 9.3 77 1011.6(1.2/3h) -- -- -- --
06:00 17.8 17.8 14.6 S 3.7 -- 11.1 82 1011.2(0.9/3h) -- -- -- --
05:00 17.3 17.3 14.7 S 3.7 -- 7.4 85 1010.8(1.0/3h) -- -- -- --
04:00 16.5 16.5 14.5 S 3.7 -- 7.4 88 1010.3(1.1/3h) -- -- -- --
03:00 15.6 15.6 13.9 SSO 3.7 -- 9.3 90 1010.2(1.2/3h) -- -- -- --
02:00 15.8 15.8 13.9 NNO 1.9 -- 9.3 88 1009.7(0.8/3h) -- -- -- --
01:00 16.9 16.9 14.1 SSO 5.6 -- 9.3 84 1009.2(0.2/3h) -- -- -- --
00:00 17.0 17.0 14.4 SSO 5.6 -- 11.1 85 1009.1(0.1/3h) -- -- -- --

1 Coordinated Universal Time. Actuellement il est 21:00 locale et 19:00 UTC.

2 Le vent souffle depuis la direction indiquée vers la direction oposée.

3 Les rafales max. sont disponible 40 min après l'heure du relevé.

4 Pour les stations d'altitude (plus de 600m) le géopotentiel du niveau le plus proche de la pression obligatoire est indiqué.

5 Les stations disposant d'un diffuseur peuvent indiquer "trace". Cela signifie que des précipitations ont touchés le sol mais que la quantité est inférieure à 0.1 mm.

Récapitulatif de la journée
Température [°C] Vent [km/h] Ensoleillement4 [h] Precipitations totale5 [mm] Pression [Hpa]
Min1 Max.2 Moy.3 Max. Min Max.
15.5 24.9 0 16.7 0 h 0 min 0 1009.1 1011.8

1 Température minimale relevée entre 18:00 UTC la veille et 18:00 UTC le jour donné.

2 Température maximale relevée entre 06:00 UTC le jour donné et 06:00 UTC le lendemain.

3 Vent moyen de la journée basé sur les relevés horaires.

4 Ensoleillement en heures relevé entre 06:00 UTC la veille et 06:00 UTC le jour donné.

5 Précipitations totales tombées entre 06:00 UTC la jour donné et 06:00 UTC le lendemain.

Graphiques horaires